createdAt,value
2019-03-21T00:01:58.484Z,4.54
2019-03-21T00:04:25.053Z,4.54
2019-03-21T00:06:51.642Z,4.54
2019-03-21T00:09:18.259Z,4.54
2019-03-21T00:11:44.852Z,4.51
2019-03-21T00:14:11.426Z,4.51
2019-03-21T00:16:38.029Z,4.50
2019-03-21T00:19:04.606Z,4.48
2019-03-21T00:21:31.210Z,4.47
2019-03-21T00:23:57.779Z,4.47
2019-03-21T00:26:24.354Z,4.47
2019-03-21T00:28:50.930Z,4.48
2019-03-21T00:31:17.498Z,4.50
2019-03-21T00:33:44.073Z,4.48
2019-03-21T00:36:10.644Z,4.50
2019-03-21T00:38:37.218Z,4.46
2019-03-21T00:41:03.789Z,4.46
2019-03-21T00:43:30.364Z,4.43
2019-03-21T00:45:56.954Z,4.41
2019-03-21T00:48:23.505Z,4.39
2019-03-21T00:50:50.077Z,4.37
2019-03-21T00:53:16.666Z,4.37
2019-03-21T00:55:43.245Z,4.37
2019-03-21T00:58:09.833Z,4.36
2019-03-21T01:00:36.481Z,4.35
2019-03-21T01:03:03.825Z,4.36
2019-03-21T01:05:30.625Z,4.36
2019-03-21T01:07:57.238Z,4.36
2019-03-21T01:10:23.806Z,4.34
2019-03-21T01:12:50.412Z,4.35
2019-03-21T01:15:16.975Z,4.36
2019-03-21T01:17:43.590Z,4.36
2019-03-21T01:20:10.237Z,4.35
2019-03-21T01:22:36.867Z,4.36
2019-03-21T01:25:03.437Z,4.35
2019-03-21T01:27:30.036Z,4.35
2019-03-21T01:29:56.610Z,4.34
2019-03-21T01:32:23.214Z,4.35
2019-03-21T01:34:49.793Z,4.34
2019-03-21T01:37:16.406Z,4.35
2019-03-21T01:39:42.990Z,4.34
2019-03-21T01:42:09.587Z,4.32
2019-03-21T01:44:41.014Z,4.33
2019-03-21T01:47:04.510Z,4.35
2019-03-21T01:49:31.088Z,4.35
2019-03-21T01:51:57.667Z,4.34
2019-03-21T01:54:24.242Z,4.34
2019-03-21T01:56:50.814Z,4.35
2019-03-21T01:59:17.393Z,4.36
2019-03-21T02:01:43.964Z,4.35
2019-03-21T02:04:10.571Z,4.36
2019-03-21T02:06:37.198Z,4.36
2019-03-21T02:09:03.781Z,4.35
2019-03-21T02:11:30.363Z,4.35
2019-03-21T02:13:56.950Z,4.34
2019-03-21T02:16:23.533Z,4.33
2019-03-21T02:18:50.182Z,4.34
2019-03-21T02:21:16.768Z,4.35
2019-03-21T02:23:43.342Z,4.37
2019-03-21T02:26:09.918Z,4.38
2019-03-21T02:28:36.609Z,4.41
2019-03-21T02:31:03.182Z,4.44
2019-03-21T02:33:29.756Z,4.45
2019-03-21T02:35:56.338Z,4.47
2019-03-21T02:38:22.915Z,4.47
2019-03-21T02:40:49.498Z,4.47
2019-03-21T02:43:16.080Z,4.48
2019-03-21T02:45:42.660Z,4.50
2019-03-21T02:48:09.234Z,4.49
2019-03-21T02:50:35.804Z,4.51
2019-03-21T02:53:02.441Z,4.50
2019-03-21T02:55:29.079Z,4.48
2019-03-21T02:57:55.688Z,4.49
2019-03-21T03:00:22.258Z,4.51
2019-03-21T03:02:48.865Z,4.52
2019-03-21T03:05:15.458Z,4.53
2019-03-21T03:07:42.124Z,4.54
2019-03-21T03:10:08.698Z,4.55
2019-03-21T03:12:35.283Z,4.56
2019-03-21T03:15:01.864Z,4.56
2019-03-21T03:17:28.442Z,4.57
2019-03-21T03:19:55.018Z,4.57
2019-03-21T03:22:21.661Z,4.56
2019-03-21T03:24:48.265Z,4.56
2019-03-21T03:27:14.848Z,4.56
2019-03-21T03:29:41.424Z,4.55
2019-03-21T03:32:07.999Z,4.53
2019-03-21T03:34:34.589Z,4.51
2019-03-21T03:37:01.148Z,4.51
2019-03-21T03:39:27.720Z,4.48
2019-03-21T03:41:54.288Z,4.47
2019-03-21T03:44:20.861Z,4.45
2019-03-21T03:46:47.434Z,4.46
2019-03-21T03:49:13.998Z,4.45
2019-03-21T03:51:40.575Z,4.45
2019-03-21T03:54:07.150Z,4.47
2019-03-21T03:56:33.721Z,4.49
2019-03-21T03:59:00.301Z,4.51
2019-03-21T04:01:26.883Z,4.52
2019-03-21T04:03:53.461Z,4.55
2019-03-21T04:06:20.037Z,4.56
2019-03-21T04:08:46.610Z,4.57
2019-03-21T04:11:13.192Z,4.58
2019-03-21T04:13:39.796Z,4.57
2019-03-21T04:16:06.373Z,4.58
2019-03-21T04:18:32.992Z,4.58
2019-03-21T04:20:59.584Z,4.57
2019-03-21T04:23:26.202Z,4.57
2019-03-21T04:25:52.791Z,4.55
2019-03-21T04:28:19.401Z,4.55
2019-03-21T04:30:46.013Z,4.55
2019-03-21T04:33:12.786Z,4.54
2019-03-21T04:35:39.351Z,4.55
2019-03-21T04:38:05.996Z,4.55
2019-03-21T04:40:32.585Z,4.57
2019-03-21T04:42:59.178Z,4.60
2019-03-21T04:45:25.751Z,4.62
2019-03-21T04:47:52.329Z,4.64
2019-03-21T04:50:18.905Z,4.66
2019-03-21T04:52:45.486Z,4.70
2019-03-21T04:55:12.068Z,4.72
2019-03-21T04:57:38.666Z,4.74
2019-03-21T05:00:05.249Z,4.78
2019-03-21T05:02:31.825Z,4.81
2019-03-21T05:04:58.405Z,4.84
2019-03-21T05:07:24.983Z,4.89
2019-03-21T05:09:51.565Z,4.93
2019-03-21T05:12:18.142Z,4.96
2019-03-21T05:14:44.739Z,4.99
2019-03-21T05:17:11.302Z,5.02
2019-03-21T05:19:37.888Z,5.07
2019-03-21T05:22:04.455Z,5.10
2019-03-21T05:24:31.046Z,5.14
2019-03-21T05:26:57.632Z,5.18
2019-03-21T05:29:24.234Z,5.21
2019-03-21T05:31:50.802Z,5.25
2019-03-21T05:34:17.390Z,5.29
2019-03-21T05:36:43.953Z,5.33
2019-03-21T05:39:10.564Z,5.37
2019-03-21T05:41:37.132Z,5.42
2019-03-21T05:44:03.709Z,5.49
2019-03-21T05:46:30.286Z,5.55
2019-03-21T05:48:56.868Z,5.62
2019-03-21T05:51:23.437Z,5.70
2019-03-21T05:53:50.092Z,5.79
2019-03-21T05:56:16.664Z,5.88
2019-03-21T05:58:43.235Z,5.97
2019-03-21T06:01:09.838Z,6.03
2019-03-21T06:03:36.408Z,6.11
2019-03-21T06:06:02.992Z,6.19
2019-03-21T06:08:29.566Z,6.24
2019-03-21T06:10:56.146Z,6.29
2019-03-21T06:13:22.737Z,6.36
2019-03-21T06:15:49.311Z,6.41
2019-03-21T06:18:15.895Z,6.48
2019-03-21T06:20:42.469Z,6.52
2019-03-21T06:23:09.055Z,6.57
2019-03-21T06:25:35.637Z,6.64
2019-03-21T06:28:02.216Z,6.70
2019-03-21T06:30:28.799Z,6.77
2019-03-21T06:32:55.381Z,6.84
2019-03-21T06:35:21.953Z,6.91
2019-03-21T06:37:48.532Z,7.01
2019-03-21T06:40:15.114Z,7.13
2019-03-21T06:42:41.687Z,7.24
2019-03-21T06:45:08.265Z,7.36
2019-03-21T06:47:34.847Z,7.49
2019-03-21T06:50:01.419Z,7.61
2019-03-21T06:52:27.998Z,7.73
2019-03-21T06:54:54.579Z,7.83
2019-03-21T06:57:21.158Z,7.91
2019-03-21T06:59:47.736Z,7.96
2019-03-21T07:02:14.312Z,8.02
2019-03-21T07:04:40.932Z,8.07
2019-03-21T07:07:08.579Z,8.12
2019-03-21T07:09:35.460Z,8.20
2019-03-21T07:12:02.056Z,8.26
2019-03-21T07:14:28.639Z,8.31
2019-03-21T07:17:00.254Z,8.34
2019-03-21T07:19:24.034Z,8.35
2019-03-21T07:21:50.649Z,8.38
2019-03-21T07:24:17.226Z,8.38
2019-03-21T07:26:43.841Z,8.40
2019-03-21T07:29:10.413Z,8.44
2019-03-21T07:31:37.006Z,8.49
2019-03-21T07:34:03.578Z,8.54
2019-03-21T07:36:30.193Z,8.58
2019-03-21T07:38:56.763Z,8.62
2019-03-21T07:41:23.373Z,8.67
2019-03-21T07:43:49.955Z,8.71
2019-03-21T07:46:16.550Z,8.77
2019-03-21T07:48:43.127Z,8.84
2019-03-21T07:51:09.745Z,8.91
2019-03-21T07:53:36.328Z,8.98
2019-03-21T07:56:02.914Z,9.03
2019-03-21T07:58:29.519Z,9.10
2019-03-21T08:00:56.136Z,9.12
2019-03-21T08:03:22.717Z,9.18
2019-03-21T08:05:49.433Z,9.25
2019-03-21T08:08:16.014Z,9.30
2019-03-21T08:10:42.630Z,9.34
2019-03-21T08:13:09.209Z,9.35
2019-03-21T08:15:37.832Z,9.38
2019-03-21T08:18:04.208Z,9.43
2019-03-21T08:20:30.825Z,9.49
2019-03-21T08:22:57.400Z,9.54
2019-03-21T08:25:24.012Z,9.60
2019-03-21T08:27:51.838Z,9.68
2019-03-21T08:30:18.673Z,9.75
2019-03-21T08:32:45.244Z,9.83
2019-03-21T08:35:11.818Z,9.86
2019-03-21T08:37:38.398Z,9.93
2019-03-21T08:40:04.984Z,10.02
2019-03-21T08:42:31.559Z,10.09
2019-03-21T08:44:58.128Z,10.14
2019-03-21T08:47:24.708Z,10.16
2019-03-21T08:49:51.295Z,10.20
2019-03-21T08:52:17.887Z,10.27
2019-03-21T08:54:44.450Z,10.32
2019-03-21T08:57:11.054Z,10.39
2019-03-21T08:59:37.675Z,10.45
2019-03-21T09:02:04.258Z,10.51
2019-03-21T09:04:30.828Z,10.56
2019-03-21T09:06:57.408Z,10.59
2019-03-21T09:09:23.989Z,10.60
2019-03-21T09:11:50.561Z,10.64
2019-03-21T09:14:17.145Z,10.70
2019-03-21T09:16:43.737Z,10.76
2019-03-21T09:19:10.305Z,10.83
2019-03-21T09:21:36.962Z,10.93
2019-03-21T09:24:03.542Z,11.01
2019-03-21T09:26:30.162Z,11.10
2019-03-21T09:28:56.749Z,11.16
2019-03-21T09:31:23.361Z,11.16
2019-03-21T09:33:49.951Z,11.17
2019-03-21T09:36:16.564Z,11.19
2019-03-21T09:38:43.141Z,11.22
2019-03-21T09:41:09.761Z,11.26
2019-03-21T09:43:36.355Z,11.26
2019-03-21T09:46:02.935Z,11.29
2019-03-21T09:48:29.513Z,11.32
2019-03-21T09:50:56.163Z,11.36
2019-03-21T09:53:22.740Z,11.37
2019-03-21T09:55:49.313Z,11.37
2019-03-21T09:58:15.898Z,11.40
2019-03-21T10:00:42.472Z,11.43
2019-03-21T10:03:09.047Z,11.43
2019-03-21T10:05:35.616Z,11.41
2019-03-21T10:08:02.189Z,11.40
2019-03-21T10:10:28.782Z,11.42
2019-03-21T10:12:55.678Z,11.49
2019-03-21T10:15:22.418Z,11.60
2019-03-21T10:17:49.021Z,11.75
2019-03-21T10:20:15.595Z,11.84
2019-03-21T10:22:42.206Z,11.93
2019-03-21T10:25:08.791Z,11.96
2019-03-21T10:27:35.408Z,11.93
2019-03-21T10:30:01.988Z,11.88
2019-03-21T10:32:28.705Z,11.81
2019-03-21T10:34:55.277Z,11.80
2019-03-21T10:37:21.893Z,11.78
2019-03-21T10:39:48.525Z,11.77
2019-03-21T10:42:15.155Z,11.78
2019-03-21T10:44:41.714Z,11.82
2019-03-21T10:47:08.340Z,11.87
2019-03-21T10:49:34.926Z,11.93
2019-03-21T10:52:01.545Z,12.01
2019-03-21T10:54:28.118Z,12.10
2019-03-21T10:56:54.717Z,12.16
2019-03-21T10:59:21.363Z,12.19
2019-03-21T11:01:47.958Z,12.19
2019-03-21T11:04:14.565Z,12.17
2019-03-21T11:06:41.170Z,12.16
2019-03-21T11:09:07.759Z,12.15
2019-03-21T11:11:34.374Z,12.16
2019-03-21T11:14:00.958Z,12.16
2019-03-21T11:16:27.533Z,12.16
2019-03-21T11:18:54.120Z,12.16
2019-03-21T11:21:20.697Z,12.12
2019-03-21T11:23:47.268Z,12.10
2019-03-21T11:26:13.844Z,12.07
2019-03-21T11:28:40.416Z,12.09
2019-03-21T11:31:06.990Z,12.10
2019-03-21T11:33:33.570Z,12.15
2019-03-21T11:36:00.158Z,12.19
2019-03-21T11:38:26.737Z,12.23
2019-03-21T11:40:53.327Z,12.26
2019-03-21T11:43:19.913Z,12.33
2019-03-21T11:45:47.779Z,12.35
2019-03-21T11:48:14.722Z,12.39
2019-03-21T11:50:41.301Z,12.43
2019-03-21T11:53:07.876Z,12.47
2019-03-21T11:55:34.453Z,12.51
2019-03-21T11:58:01.026Z,12.56
2019-03-21T12:00:27.621Z,12.62
2019-03-21T12:02:54.183Z,12.69
2019-03-21T12:05:20.768Z,12.72
2019-03-21T12:07:47.339Z,12.74
2019-03-21T12:10:13.922Z,12.72
2019-03-21T12:12:40.511Z,12.72
2019-03-21T12:15:07.100Z,12.68
2019-03-21T12:17:33.684Z,12.59
2019-03-21T12:20:00.453Z,12.49
2019-03-21T12:22:30.295Z,12.41
2019-03-21T12:24:56.219Z,12.29
2019-03-21T12:27:22.822Z,12.26
2019-03-21T12:29:49.403Z,12.27
2019-03-21T12:32:16.014Z,12.26
2019-03-21T12:34:42.603Z,12.22
2019-03-21T12:37:09.213Z,12.22
2019-03-21T12:39:35.793Z,12.32
2019-03-21T12:42:02.367Z,12.39
2019-03-21T12:44:28.950Z,12.48
2019-03-21T12:46:55.529Z,12.53
2019-03-21T12:49:22.106Z,12.54
2019-03-21T12:51:48.688Z,12.56
2019-03-21T12:54:15.263Z,12.61
2019-03-21T12:56:41.833Z,12.69
2019-03-21T12:59:08.409Z,12.77
2019-03-21T13:01:34.991Z,12.88
2019-03-21T13:04:01.583Z,13.02
2019-03-21T13:06:28.164Z,13.12
2019-03-21T13:08:54.736Z,13.23
2019-03-21T13:11:21.406Z,13.27
2019-03-21T13:13:47.993Z,13.38
2019-03-21T13:16:14.576Z,13.44
2019-03-21T13:18:41.163Z,13.53
2019-03-21T13:21:07.752Z,13.56
2019-03-21T13:23:34.367Z,13.58
2019-03-21T13:26:00.949Z,13.54
2019-03-21T13:28:27.554Z,13.51
2019-03-21T13:30:54.137Z,13.49
2019-03-21T13:33:20.744Z,13.47
2019-03-21T13:35:47.320Z,13.46
2019-03-21T13:38:13.970Z,13.46
2019-03-21T13:40:40.551Z,13.40
2019-03-21T13:43:07.181Z,13.40
2019-03-21T13:45:33.772Z,13.45
2019-03-21T13:48:00.536Z,13.47
2019-03-21T13:50:27.149Z,13.49
2019-03-21T13:53:04.221Z,13.49
2019-03-21T13:55:22.085Z,13.53
2019-03-21T13:57:48.705Z,13.52
2019-03-21T14:00:15.274Z,13.52
2019-03-21T14:02:41.867Z,13.52
2019-03-21T14:05:08.444Z,13.52
2019-03-21T14:07:35.032Z,13.50
2019-03-21T14:10:01.611Z,13.43
2019-03-21T14:12:28.273Z,13.32
2019-03-21T14:14:54.845Z,13.17
2019-03-21T14:17:22.323Z,13.05
2019-03-21T14:19:49.076Z,12.94
2019-03-21T14:22:15.695Z,12.83
2019-03-21T14:24:42.286Z,12.72
2019-03-21T14:27:08.865Z,12.62
2019-03-21T14:29:35.491Z,12.54
2019-03-21T14:32:02.069Z,12.47
2019-03-21T14:34:28.683Z,12.43
2019-03-21T14:36:55.258Z,12.39
2019-03-21T14:39:21.838Z,12.34
2019-03-21T14:41:48.424Z,12.30
2019-03-21T14:44:15.015Z,12.28
2019-03-21T14:46:41.597Z,12.30
2019-03-21T14:49:08.167Z,12.29
2019-03-21T14:51:34.745Z,12.28
2019-03-21T14:54:01.326Z,12.23
2019-03-21T14:56:27.898Z,12.16
2019-03-21T14:58:54.517Z,12.13
2019-03-21T15:01:21.141Z,12.10
2019-03-21T15:03:47.826Z,12.09
2019-03-21T15:06:14.401Z,12.08
2019-03-21T15:08:41.022Z,12.10
2019-03-21T15:11:16.508Z,12.08
2019-03-21T15:13:36.081Z,12.05
2019-03-21T15:16:03.160Z,11.99
2019-03-21T15:18:29.781Z,11.98
2019-03-21T15:20:56.346Z,11.97
2019-03-21T15:23:25.687Z,11.98
2019-03-21T15:25:51.351Z,11.98
2019-03-21T15:28:17.928Z,11.95
2019-03-21T15:30:44.535Z,11.95
2019-03-21T15:33:11.160Z,11.97
2019-03-21T15:35:37.743Z,11.96
2019-03-21T15:38:04.424Z,11.97
2019-03-21T15:40:30.994Z,11.96
2019-03-21T15:42:57.576Z,11.93
2019-03-21T15:45:24.272Z,11.91
2019-03-21T15:47:50.930Z,11.86
2019-03-21T15:50:17.526Z,11.80
2019-03-21T15:52:44.102Z,11.74
2019-03-21T15:55:10.739Z,11.69
2019-03-21T15:57:37.309Z,11.65
2019-03-21T16:00:03.930Z,11.60
2019-03-21T16:02:30.504Z,11.58
2019-03-21T16:04:57.102Z,11.57
2019-03-21T16:07:23.675Z,11.56
2019-03-21T16:09:50.303Z,11.55
2019-03-21T16:12:16.987Z,11.56
2019-03-21T16:14:43.595Z,11.56
2019-03-21T16:17:10.166Z,11.54
2019-03-21T16:19:36.781Z,11.53
2019-03-21T16:22:03.360Z,11.51
2019-03-21T16:24:29.968Z,11.50
2019-03-21T16:26:56.553Z,11.49
2019-03-21T16:29:23.158Z,11.47
2019-03-21T16:31:49.742Z,11.45
2019-03-21T16:34:16.358Z,11.40
2019-03-21T16:36:42.937Z,11.40
2019-03-21T16:39:09.547Z,11.37
2019-03-21T16:41:36.194Z,11.35
2019-03-21T16:44:02.805Z,11.35
2019-03-21T16:46:29.388Z,11.33
2019-03-21T16:48:56.012Z,11.33
2019-03-21T16:51:22.594Z,11.31
2019-03-21T16:53:57.292Z,11.34
2019-03-21T16:56:23.874Z,11.26
2019-03-21T16:58:50.442Z,11.25
2019-03-21T17:01:17.020Z,11.25
2019-03-21T17:03:43.597Z,11.23
2019-03-21T17:06:10.187Z,11.20
2019-03-21T17:08:36.766Z,11.20
2019-03-21T17:11:03.406Z,11.19
2019-03-21T17:13:29.992Z,11.19
2019-03-21T17:15:56.565Z,11.18
2019-03-21T17:18:23.142Z,11.17
2019-03-21T17:20:49.805Z,11.18
2019-03-21T17:23:16.434Z,11.17
2019-03-21T17:25:43.157Z,11.16
2019-03-21T17:28:09.741Z,11.15
2019-03-21T17:30:36.327Z,11.15
2019-03-21T17:33:02.907Z,11.13
2019-03-21T17:35:29.481Z,11.12
2019-03-21T17:37:56.065Z,11.10
2019-03-21T17:40:22.649Z,11.06
2019-03-21T17:42:49.219Z,11.04
2019-03-21T17:45:15.800Z,11.01
2019-03-21T17:47:42.379Z,10.99
2019-03-21T17:50:08.953Z,10.96
2019-03-21T17:52:35.549Z,10.95
2019-03-21T17:55:02.123Z,10.92
2019-03-21T17:57:34.469Z,10.88
2019-03-21T17:59:57.009Z,10.86
2019-03-21T18:02:23.588Z,10.82
2019-03-21T18:04:50.226Z,10.78
2019-03-21T18:07:16.826Z,10.75
2019-03-21T18:09:43.447Z,10.73
2019-03-21T18:12:10.284Z,10.70
2019-03-21T18:14:37.033Z,10.68
2019-03-21T18:17:03.620Z,10.65
2019-03-21T18:19:30.215Z,10.63
2019-03-21T18:21:56.795Z,10.61
2019-03-21T18:24:23.373Z,10.59
2019-03-21T18:26:49.956Z,10.56
2019-03-21T18:29:16.548Z,10.52
2019-03-21T18:31:43.125Z,10.49
2019-03-21T18:34:09.711Z,10.45
2019-03-21T18:36:36.323Z,10.42
2019-03-21T18:39:02.912Z,10.39
2019-03-21T18:41:29.517Z,10.35
2019-03-21T18:43:56.084Z,10.32
2019-03-21T18:46:22.713Z,10.30
2019-03-21T18:48:49.294Z,10.31
2019-03-21T18:51:16.005Z,10.31
2019-03-21T18:53:42.581Z,10.31
2019-03-21T18:56:09.656Z,10.31
2019-03-21T18:58:36.450Z,10.29
2019-03-21T19:01:03.099Z,10.30
2019-03-21T19:03:29.693Z,10.29
2019-03-21T19:05:56.296Z,10.29
2019-03-21T19:08:23.202Z,10.29
2019-03-21T19:10:49.946Z,10.31
2019-03-21T19:13:16.526Z,10.32
2019-03-21T19:15:43.151Z,10.32
2019-03-21T19:18:09.728Z,10.32
2019-03-21T19:20:36.348Z,10.35
2019-03-21T19:23:02.922Z,10.35
2019-03-21T19:25:29.543Z,10.36
2019-03-21T19:27:56.130Z,10.38
2019-03-21T19:30:22.755Z,10.36
2019-03-21T19:32:49.334Z,10.36
2019-03-21T19:35:15.969Z,10.35
2019-03-21T19:37:42.556Z,10.35
2019-03-21T19:40:09.173Z,10.34
2019-03-21T19:42:35.746Z,10.33
2019-03-21T19:45:02.325Z,10.32
2019-03-21T19:47:30.527Z,10.31
2019-03-21T19:49:57.265Z,10.31
2019-03-21T19:52:23.849Z,10.30
2019-03-21T19:54:50.424Z,10.29
2019-03-21T19:57:17.011Z,10.29
2019-03-21T19:59:43.592Z,10.27
2019-03-21T20:02:10.176Z,10.27
2019-03-21T20:04:36.757Z,10.28
2019-03-21T20:07:03.342Z,10.29
2019-03-21T20:09:29.924Z,10.29
2019-03-21T20:11:56.500Z,10.31
2019-03-21T20:14:23.082Z,10.32
2019-03-21T20:16:49.664Z,10.34
2019-03-21T20:19:16.251Z,10.35
2019-03-21T20:21:47.818Z,10.37
2019-03-21T20:24:11.149Z,10.40
2019-03-21T20:26:37.853Z,10.41
2019-03-21T20:29:04.446Z,10.41
2019-03-21T20:31:31.026Z,10.42
2019-03-21T20:33:57.683Z,10.44
2019-03-21T20:36:24.262Z,10.45
2019-03-21T20:38:50.843Z,10.45
2019-03-21T20:41:17.452Z,10.47
2019-03-21T20:43:44.030Z,10.48
2019-03-21T20:46:10.614Z,10.48
2019-03-21T20:48:37.211Z,10.50
2019-03-21T20:51:03.803Z,10.50
2019-03-21T20:53:30.385Z,10.51
2019-03-21T20:55:57.000Z,10.52
2019-03-21T20:58:23.586Z,10.52
2019-03-21T21:00:50.275Z,10.53
2019-03-21T21:03:16.847Z,10.52
2019-03-21T21:05:43.433Z,10.54
2019-03-21T21:08:10.082Z,10.54
2019-03-21T21:10:36.657Z,10.55
2019-03-21T21:13:03.226Z,10.54
2019-03-21T21:15:29.806Z,10.56
2019-03-21T21:17:56.427Z,10.57
2019-03-21T21:20:22.997Z,10.58
2019-03-21T21:22:49.596Z,10.58
2019-03-21T21:25:16.173Z,10.59
2019-03-21T21:27:49.310Z,10.60
2019-03-21T21:30:11.093Z,10.59
2019-03-21T21:32:37.711Z,10.59
2019-03-21T21:35:04.285Z,10.58
2019-03-21T21:37:30.962Z,10.57
2019-03-21T21:39:57.577Z,10.57
2019-03-21T21:42:24.440Z,10.57
2019-03-21T21:44:51.032Z,10.57
2019-03-21T21:47:17.640Z,10.58
2019-03-21T21:49:44.214Z,10.59
2019-03-21T21:52:10.814Z,10.59
2019-03-21T21:54:37.382Z,10.59
2019-03-21T21:57:03.996Z,10.61
2019-03-21T21:59:30.594Z,10.60
2019-03-21T22:01:57.203Z,10.59
2019-03-21T22:04:23.786Z,10.60
2019-03-21T22:06:51.485Z,10.59
2019-03-21T22:09:18.067Z,10.60
2019-03-21T22:11:44.691Z,10.59
2019-03-21T22:14:11.271Z,10.57
2019-03-21T22:16:37.898Z,10.55
2019-03-21T22:19:04.472Z,10.54
2019-03-21T22:21:31.072Z,10.51
2019-03-21T22:23:57.665Z,10.50
2019-03-21T22:26:29.577Z,10.49
2019-03-21T22:28:52.547Z,10.48
2019-03-21T22:31:19.120Z,10.49
2019-03-21T22:33:45.695Z,10.49
2019-03-21T22:36:12.276Z,10.51
2019-03-21T22:38:38.856Z,10.52
2019-03-21T22:41:05.441Z,10.53
2019-03-21T22:43:32.017Z,10.55
2019-03-21T22:45:58.594Z,10.57
2019-03-21T22:48:25.174Z,10.58
2019-03-21T22:50:51.750Z,10.58
2019-03-21T22:53:18.333Z,10.59
2019-03-21T22:55:44.904Z,10.59
2019-03-21T22:58:11.536Z,10.60
2019-03-21T23:00:38.124Z,10.59
2019-03-21T23:03:04.700Z,10.60
2019-03-21T23:05:31.308Z,10.61
2019-03-21T23:07:57.891Z,10.62
2019-03-21T23:10:24.468Z,10.62
2019-03-21T23:12:51.063Z,10.64
2019-03-21T23:15:17.636Z,10.65
2019-03-21T23:17:44.221Z,10.66
2019-03-21T23:20:10.791Z,10.67
2019-03-21T23:22:37.398Z,10.68
2019-03-21T23:25:03.968Z,10.68
2019-03-21T23:27:30.595Z,10.67
2019-03-21T23:29:57.171Z,10.68
2019-03-21T23:32:23.786Z,10.68
2019-03-21T23:34:50.364Z,10.68
2019-03-21T23:37:16.999Z,10.67
2019-03-21T23:39:43.568Z,10.67
2019-03-21T23:42:10.187Z,10.66
2019-03-21T23:44:36.758Z,10.66
2019-03-21T23:47:03.339Z,10.65
2019-03-21T23:49:29.917Z,10.63
2019-03-21T23:51:56.491Z,10.62
2019-03-21T23:54:23.191Z,10.60
2019-03-21T23:56:49.774Z,10.58
2019-03-21T23:59:16.357Z,10.54
